createdAt,value
2023-11-04T00:04:26.986Z,69.84
2023-11-04T00:09:41.825Z,69.49
2023-11-04T00:14:51.114Z,69.83
2023-11-04T00:19:54.830Z,70.20
2023-11-04T00:24:57.407Z,69.79
2023-11-04T00:30:00.008Z,70.13
2023-11-04T00:35:02.637Z,69.72
2023-11-04T00:40:25.177Z,69.76
2023-11-04T00:45:47.732Z,69.76
2023-11-04T00:51:10.469Z,69.76
2023-11-04T00:56:34.699Z,69.60
2023-11-04T01:01:57.184Z,69.21
2023-11-04T01:07:19.708Z,69.67
2023-11-04T01:12:43.122Z,69.29
2023-11-04T01:18:06.238Z,69.76
2023-11-04T01:23:30.473Z,69.74
2023-11-04T01:28:53.051Z,69.61
2023-11-04T01:34:16.161Z,69.85
2023-11-04T01:39:40.425Z,70.19
2023-11-04T01:45:03.140Z,69.77
2023-11-04T01:50:29.074Z,69.37
2023-11-04T01:55:53.062Z,69.14
2023-11-04T02:01:18.271Z,69.84
2023-11-04T02:06:41.066Z,69.84
2023-11-04T02:12:05.104Z,69.77
2023-11-04T02:17:27.731Z,69.50
2023-11-04T02:22:50.325Z,69.39
2023-11-04T02:28:12.881Z,69.14
2023-11-04T02:33:36.788Z,69.43
2023-11-04T02:38:59.802Z,68.96
2023-11-04T02:44:25.081Z,68.40
2023-11-04T02:49:47.568Z,68.51
2023-11-04T02:55:10.704Z,68.49
2023-11-04T03:00:33.304Z,68.61
2023-11-04T03:05:55.939Z,68.26
2023-11-04T03:11:23.980Z,68.13
2023-11-04T03:16:46.489Z,67.82
2023-11-04T03:22:09.189Z,67.74
2023-11-04T03:27:31.925Z,67.86
2023-11-04T03:32:54.629Z,67.98
2023-11-04T03:38:17.195Z,68.39
2023-11-04T03:43:39.682Z,68.61
2023-11-04T03:49:02.468Z,68.45
2023-11-04T03:54:25.411Z,68.06
2023-11-04T03:59:48.306Z,67.80
2023-11-04T04:05:10.864Z,68.35
2023-11-04T04:10:33.544Z,68.02
2023-11-04T04:16:01.594Z,68.17
2023-11-04T04:21:24.713Z,68.35
2023-11-04T04:26:49.434Z,68.49
2023-11-04T04:32:12.009Z,68.23
2023-11-04T04:37:36.115Z,67.84
2023-11-04T04:42:58.629Z,67.85
2023-11-04T04:48:22.137Z,67.74
2023-11-04T04:53:44.914Z,67.75
2023-11-04T04:59:10.622Z,67.62
2023-11-04T05:04:34.619Z,67.72
2023-11-04T05:09:57.481Z,67.72
2023-11-04T05:15:20.294Z,67.70
2023-11-04T05:20:44.121Z,67.97
2023-11-04T05:26:08.967Z,67.18
2023-11-04T05:31:34.006Z,67.04
2023-11-04T05:36:56.558Z,66.34
2023-11-04T05:42:19.248Z,66.00
2023-11-04T05:47:50.648Z,65.05
2023-11-04T05:53:17.967Z,64.36
2023-11-04T05:58:40.506Z,63.92
2023-11-04T06:04:04.266Z,63.28
2023-11-04T06:09:30.683Z,62.94
2023-11-04T06:14:53.239Z,63.02
2023-11-04T06:20:16.178Z,62.84
2023-11-04T06:25:39.814Z,62.65
2023-11-04T06:31:10.816Z,62.95
2023-11-04T06:36:35.522Z,63.28
2023-11-04T06:41:58.369Z,63.60
2023-11-04T06:47:24.515Z,64.08
2023-11-04T06:52:50.254Z,64.13
2023-11-04T06:57:52.853Z,63.81
2023-11-04T07:02:57.291Z,64.17
2023-11-04T07:08:03.749Z,64.42
2023-11-04T07:13:16.066Z,65.16
2023-11-04T07:18:19.460Z,64.55
2023-11-04T07:23:22.154Z,63.68
2023-11-04T07:28:27.135Z,63.78
2023-11-04T07:33:35.973Z,63.43
2023-11-04T07:38:45.381Z,63.75
2023-11-04T07:43:51.178Z,63.07
2023-11-04T07:48:57.887Z,63.08
2023-11-04T07:54:03.211Z,62.33
2023-11-04T07:59:06.828Z,62.30
2023-11-04T08:04:11.994Z,62.71
2023-11-04T08:09:19.249Z,62.16
2023-11-04T08:14:24.481Z,61.85
2023-11-04T08:19:30.252Z,61.87
2023-11-04T08:24:38.797Z,62.37
2023-11-04T08:29:42.371Z,62.26
2023-11-04T08:34:46.273Z,62.39
2023-11-04T08:39:52.334Z,62.66
2023-11-04T08:44:55.158Z,62.06
2023-11-04T08:50:01.058Z,62.35
2023-11-04T08:55:06.766Z,62.04
2023-11-04T09:00:13.118Z,61.04
2023-11-04T09:05:25.276Z,60.87
2023-11-04T09:10:33.688Z,60.37
2023-11-04T09:15:41.292Z,60.93
2023-11-04T09:20:44.454Z,60.48
2023-11-04T09:25:47.498Z,60.54
2023-11-04T09:30:52.037Z,60.37
2023-11-04T09:35:56.935Z,60.35
2023-11-04T09:41:03.239Z,60.84
2023-11-04T09:46:09.196Z,60.11
2023-11-04T09:51:18.713Z,60.20
2023-11-04T09:56:24.179Z,60.01
2023-11-04T10:01:28.541Z,59.46
2023-11-04T10:06:31.303Z,59.23
2023-11-04T10:11:34.631Z,59.43
2023-11-04T10:16:38.029Z,59.56
2023-11-04T10:21:43.738Z,59.03
2023-11-04T10:26:46.436Z,59.26
2023-11-04T10:31:54.800Z,59.27
2023-11-04T10:37:14.747Z,59.07
2023-11-04T10:42:23.370Z,60.01
2023-11-04T10:47:55.893Z,60.15
2023-11-04T10:53:17.737Z,60.04
2023-11-04T10:58:32.710Z,60.10
2023-11-04T11:03:36.220Z,59.58
2023-11-04T11:08:41.632Z,59.33
2023-11-04T11:13:50.677Z,59.08
2023-11-04T11:18:53.778Z,59.22
2023-11-04T11:23:56.377Z,59.21
2023-11-04T11:28:59.692Z,59.34
2023-11-04T11:34:09.695Z,59.34
2023-11-04T11:39:12.494Z,58.84
2023-11-04T11:44:18.329Z,58.69
2023-11-04T11:49:23.662Z,58.84
2023-11-04T11:54:26.227Z,58.60
2023-11-04T11:59:31.333Z,58.88
2023-11-04T12:04:36.614Z,59.26
2023-11-04T12:09:39.726Z,59.53
2023-11-04T12:14:44.106Z,59.51
2023-11-04T12:19:52.048Z,59.73
2023-11-04T12:24:54.927Z,60.05
2023-11-04T12:30:00.718Z,60.14
2023-11-04T12:35:03.354Z,60.42
2023-11-04T12:40:07.009Z,60.28
2023-11-04T12:45:14.763Z,60.47
2023-11-04T12:50:18.236Z,60.73
2023-11-04T12:55:23.161Z,60.70
2023-11-04T13:00:27.583Z,60.93
2023-11-04T13:05:34.258Z,61.23
2023-11-04T13:10:36.961Z,61.14
2023-11-04T13:15:39.628Z,61.41
2023-11-04T13:20:42.353Z,61.81
2023-11-04T13:25:45.901Z,62.35
2023-11-04T13:30:51.622Z,62.76
2023-11-04T13:35:54.513Z,63.34
2023-11-04T13:40:59.735Z,64.20
2023-11-04T13:46:08.568Z,64.19
2023-11-04T13:51:11.178Z,64.38
2023-11-04T13:56:16.297Z,64.75
2023-11-04T14:01:19.738Z,64.70
2023-11-04T14:06:29.119Z,64.68
2023-11-04T14:11:31.913Z,65.24
2023-11-04T14:16:34.600Z,64.89
2023-11-04T14:21:37.294Z,65.01
2023-11-04T14:26:43.723Z,65.42
2023-11-04T14:31:51.943Z,65.19
2023-11-04T14:36:55.324Z,65.82
2023-11-04T14:42:01.418Z,65.90
2023-11-04T14:47:04.393Z,66.35
2023-11-04T14:52:13.831Z,66.49
2023-11-04T14:57:18.306Z,66.71
2023-11-04T15:02:24.433Z,66.69
2023-11-04T15:07:28.494Z,66.86
2023-11-04T15:12:31.231Z,66.89
2023-11-04T15:17:36.319Z,67.13
2023-11-04T15:22:42.409Z,67.42
2023-11-04T15:27:46.259Z,67.42
2023-11-04T15:32:50.828Z,67.53
2023-11-04T15:37:57.190Z,67.73
2023-11-04T15:43:12.391Z,67.83
2023-11-04T15:48:16.921Z,67.59
2023-11-04T15:53:23.950Z,67.79
2023-11-04T15:58:33.500Z,67.84
2023-11-04T16:03:39.068Z,67.63
2023-11-04T16:08:43.169Z,68.05
2023-11-04T16:13:52.247Z,68.51
2023-11-04T16:18:55.049Z,68.89
2023-11-04T16:24:00.644Z,68.75
2023-11-04T16:29:04.693Z,69.06
2023-11-04T16:34:08.779Z,69.00
2023-11-04T16:39:12.228Z,69.11
2023-11-04T16:44:19.933Z,69.54
2023-11-04T16:49:23.031Z,69.49
2023-11-04T16:54:31.590Z,69.98
2023-11-04T16:59:35.773Z,69.86
2023-11-04T17:04:41.569Z,70.35
2023-11-04T17:09:50.351Z,71.17
2023-11-04T17:14:57.016Z,71.26
2023-11-04T17:20:01.474Z,71.21
2023-11-04T17:25:07.112Z,71.58
2023-11-04T17:30:11.323Z,71.49
2023-11-04T17:35:17.511Z,72.04
2023-11-04T17:40:22.361Z,72.13
2023-11-04T17:45:33.082Z,72.25
2023-11-04T17:50:40.949Z,72.67
2023-11-04T17:56:00.885Z,72.70
2023-11-04T18:01:08.240Z,72.88
2023-11-04T18:06:16.627Z,73.22
2023-11-04T18:11:24.151Z,72.87
2023-11-04T18:16:31.047Z,72.65
2023-11-04T18:21:34.109Z,73.21
2023-11-04T18:26:44.479Z,73.44
2023-11-04T18:31:52.620Z,73.12
2023-11-04T18:36:55.302Z,73.35
2023-11-04T18:42:01.589Z,73.34
2023-11-04T18:47:14.681Z,73.13
2023-11-04T18:52:20.894Z,73.31
2023-11-04T18:57:26.989Z,73.27
2023-11-04T19:02:34.101Z,73.64
2023-11-04T19:07:38.995Z,73.83
2023-11-04T19:12:44.130Z,74.07
2023-11-04T19:17:51.125Z,74.63
2023-11-04T19:22:54.250Z,74.80
2023-11-04T19:27:58.770Z,74.91
2023-11-04T19:33:03.418Z,74.96
2023-11-04T19:38:06.756Z,75.19
2023-11-04T19:43:10.890Z,75.79
2023-11-04T19:48:15.381Z,75.84
2023-11-04T19:53:27.868Z,75.84
2023-11-04T19:58:33.075Z,76.05
2023-11-04T20:03:36.021Z,76.30
2023-11-04T20:08:50.419Z,76.11
2023-11-04T20:13:56.131Z,76.27
2023-11-04T20:19:00.982Z,76.87
2023-11-04T20:24:13.997Z,76.65
2023-11-04T20:29:23.496Z,77.22
2023-11-04T20:34:28.464Z,77.58
2023-11-04T20:39:31.339Z,78.04
2023-11-04T20:44:34.017Z,77.69
2023-11-04T20:49:39.712Z,77.71
2023-11-04T20:54:44.837Z,77.97
2023-11-04T20:59:47.865Z,77.87
2023-11-04T21:04:53.879Z,77.70
2023-11-04T21:09:59.909Z,78.34
2023-11-04T21:15:03.266Z,78.57
2023-11-04T21:20:09.581Z,78.38
2023-11-04T21:25:15.278Z,78.15
2023-11-04T21:30:18.027Z,78.38
2023-11-04T21:35:21.065Z,78.54
2023-11-04T21:40:23.755Z,78.34
2023-11-04T21:45:29.553Z,78.58
2023-11-04T21:50:35.694Z,78.23
2023-11-04T21:55:38.278Z,78.76
2023-11-04T22:00:42.103Z,78.93
2023-11-04T22:05:45.690Z,79.20
2023-11-04T22:10:52.026Z,78.85
2023-11-04T22:15:54.759Z,78.66
2023-11-04T22:20:57.522Z,78.69
2023-11-04T22:26:00.189Z,78.77
2023-11-04T22:31:06.303Z,78.85
2023-11-04T22:36:09.933Z,79.00
2023-11-04T22:41:12.590Z,78.87
2023-11-04T22:46:15.599Z,79.00
2023-11-04T22:51:21.818Z,78.90
2023-11-04T22:56:24.708Z,78.86
2023-11-04T23:01:27.252Z,79.09
2023-11-04T23:06:30.130Z,78.81
2023-11-04T23:11:37.277Z,78.83
2023-11-04T23:16:39.894Z,78.82
2023-11-04T23:21:42.530Z,78.85
2023-11-04T23:26:47.809Z,78.70
2023-11-04T23:31:50.387Z,78.71
2023-11-04T23:36:52.933Z,78.49
2023-11-04T23:41:55.491Z,78.50
2023-11-04T23:46:58.087Z,78.58
2023-11-04T23:52:01.093Z,78.82
2023-11-04T23:57:03.733Z,78.78
